This is the latest recevied weather packets stored in our database for station/object W4CPD. If no packets are shown the sender has not sent any weather packets the latest 10 day(s).
| Time | Temp. | Humidity | Pressure | Rain* | Wind** | Luminosity | Snow |
|---|---|---|---|---|---|---|---|
| 1777884331 | 11.11° C | 90% | 1018.7 hPa | 0.25 mm | - | - | - |
| 1777883713 | 11.11° C | 90% | 1018.7 hPa | 0.25 mm | - | - | - |
| 1777883430 | 11.11° C | 89% | 1018.7 hPa | 0.25 mm | - | - | - |
| 1777883118 | 11.11° C | 89% | 1018.8 hPa | 0.25 mm | - | - | - |
| 1777882822 | 11.11° C | 89% | 1018.8 hPa | 0.25 mm | - | - | - |
| 1777882532 | 11.11° C | 89% | 1018.7 hPa | 0.25 mm | - | - | - |
| 1777881634 | 11.11° C | 89% | 1018.7 hPa | 0 mm | - | - | - |
| 1777881317 | 11.67° C | 89% | 1018.8 hPa | 0 mm | - | - | - |
| 1777878320 | 12.22° C | 87% | 1019.2 hPa | 0 mm | - | - | - |
| 1777878030 | 12.22° C | 86% | 1019.2 hPa | 0 mm | - | - | - |
| 1777876811 | 12.22° C | 86% | 1019.4 hPa | 0 mm | - | - | - |
| 1777875334 | 12.78° C | 85% | 1019.5 hPa | 0 mm | - | - | - |
| 1777871731 | 13.33° C | 82% | 1019.8 hPa | 0.25 mm | - | - | - |
| 1777870515 | 13.33° C | 82% | 1019.8 hPa | 0.25 mm | - | - | - |
| 1777870213 | 13.33° C | 81% | 1019.8 hPa | 0.25 mm | - | - | - |
| 1777869933 | 13.33° C | 81% | 1019.7 hPa | 0.25 mm | - | - | - |
| 1777867513 | 13.89° C | 78% | 1019.6 hPa | 0 mm | - | - | - |
| 1777864814 | 14.44° C | 79% | 1019.8 hPa | 0 mm | - | - | - |
| 1777864535 | 14.44° C | 79% | 1019.8 hPa | 0 mm | - | - | - |
| 1777863914 | 15° C | 78% | 1019.9 hPa | 0.25 mm | - | - | - |
| 1777863014 | 15° C | 75% | 1019.9 hPa | 0.25 mm | - | - | - |
| 1777862735 | 15.56° C | 75% | 1019.8 hPa | 0.25 mm | - | - | - |
| 1777858513 | 17.78° C | 69% | 1019 hPa | 0 mm | - | - | - |
| 1777858231 | 17.78° C | 67% | 1018.8 hPa | 0 mm | - | - | - |
| 1777854913 | 21.11° C | 55% | 1018.4 hPa | 0.25 mm | - | - | - |
* Rain latest hour (hover to see other rain measurements)
** Current wind speed in m/s (hover to see current wind gust speed)